sensor_id;sensor_type;location;lat;lon;timestamp;P1;durP1;ratioP1;P2;durP2;ratioP2
41303;SDS011;51002;51.462;7.218;2022-07-10T11:57:16;8.50;;;6.30;;
41303;SDS011;51002;51.462;7.218;2022-07-10T11:59:42;6.03;;;4.85;;
41303;SDS011;51002;51.462;7.218;2022-07-10T12:02:08;5.07;;;4.53;;
41303;SDS011;51002;51.462;7.218;2022-07-10T12:04:33;5.18;;;4.40;;
41303;SDS011;51002;51.462;7.218;2022-07-10T12:06:59;4.40;;;4.00;;
41303;SDS011;51002;51.462;7.218;2022-07-10T12:09:25;5.15;;;4.38;;
41303;SDS011;51002;51.462;7.218;2022-07-10T12:12:00;7.00;;;6.15;;
41303;SDS011;51002;51.462;7.218;2022-07-10T12:14:27;7.13;;;5.22;;
41303;SDS011;51002;51.462;7.218;2022-07-10T12:16:56;6.97;;;6.05;;
41303;SDS011;51002;51.462;7.218;2022-07-10T12:19:25;4.38;;;3.95;;
41303;SDS011;51002;51.462;7.218;2022-07-10T12:21:58;3.40;;;2.58;;
41303;SDS011;51002;51.462;7.218;2022-07-10T12:24:26;2.40;;;1.50;;
41303;SDS011;51002;51.462;7.218;2022-07-10T12:26:52;2.42;;;1.23;;
41303;SDS011;51002;51.462;7.218;2022-07-10T12:29:22;2.70;;;1.30;;
41303;SDS011;51002;51.462;7.218;2022-07-10T12:31:55;1.75;;;1.02;;
41303;SDS011;51002;51.462;7.218;2022-07-10T12:34:41;2.67;;;1.33;;
41303;SDS011;51002;51.462;7.218;2022-07-10T12:37:12;1.92;;;1.10;;
41303;SDS011;51002;51.462;7.218;2022-07-10T12:39:46;2.17;;;1.30;;
41303;SDS011;51002;51.462;7.218;2022-07-10T12:42:12;2.60;;;1.70;;
41303;SDS011;51002;51.462;7.218;2022-07-10T12:44:40;2.15;;;1.30;;
41303;SDS011;51002;51.462;7.218;2022-07-10T12:47:20;1.88;;;1.23;;
41303;SDS011;51002;51.462;7.218;2022-07-10T12:52:26;2.30;;;0.40;;
41303;SDS011;51002;51.462;7.218;2022-07-10T12:57:51;2.15;;;0.90;;
41303;SDS011;51002;51.462;7.218;2022-07-10T13:05:25;2.70;;;1.08;;
41303;SDS011;51002;51.462;7.218;2022-07-10T13:10:53;1.52;;;0.52;;
41303;SDS011;51002;51.462;7.218;2022-07-10T13:13:23;1.73;;;0.63;;
41303;SDS011;51002;51.462;7.218;2022-07-10T13:15:51;2.47;;;0.50;;
41303;SDS011;51002;51.462;7.218;2022-07-10T13:18:23;2.13;;;0.60;;
41303;SDS011;51002;51.462;7.218;2022-07-10T13:20:56;2.05;;;0.60;;
41303;SDS011;51002;51.462;7.218;2022-07-10T13:23:33;2.08;;;0.50;;
41303;SDS011;51002;51.462;7.218;2022-07-10T13:26:05;1.38;;;0.47;;
41303;SDS011;51002;51.462;7.218;2022-07-10T13:28:33;2.22;;;0.63;;
41303;SDS011;51002;51.462;7.218;2022-07-10T13:31:02;1.85;;;0.50;;
41303;SDS011;51002;51.462;7.218;2022-07-10T13:33:28;2.10;;;0.50;;
41303;SDS011;51002;51.462;7.218;2022-07-10T13:35:54;1.55;;;0.60;;
41303;SDS011;51002;51.462;7.218;2022-07-10T13:38:22;3.08;;;0.68;;
41303;SDS011;51002;51.462;7.218;2022-07-10T13:40:50;2.22;;;0.85;;
41303;SDS011;51002;51.462;7.218;2022-07-10T13:43:16;4.10;;;0.60;;
41303;SDS011;51002;51.462;7.218;2022-07-10T13:45:45;1.80;;;0.60;;
41303;SDS011;51002;51.462;7.218;2022-07-10T13:48:14;4.40;;;0.60;;
41303;SDS011;51002;51.462;7.218;2022-07-10T13:50:44;2.25;;;0.63;;
41303;SDS011;51002;51.462;7.218;2022-07-10T13:53:14;2.47;;;0.60;;
41303;SDS011;51002;51.462;7.218;2022-07-10T13:55:41;2.63;;;0.80;;
41303;SDS011;51002;51.462;7.218;2022-07-10T13:58:08;1.42;;;0.50;;
41303;SDS011;51002;51.462;7.218;2022-07-10T14:00:34;1.95;;;0.60;;
41303;SDS011;51002;51.462;7.218;2022-07-10T14:03:03;2.15;;;0.32;;
41303;SDS011;51002;51.462;7.218;2022-07-10T14:05:30;2.53;;;0.28;;
41303;SDS011;51002;51.462;7.218;2022-07-10T14:07:58;2.03;;;0.30;;
41303;SDS011;51002;51.462;7.218;2022-07-10T14:10:28;2.80;;;0.30;;
41303;SDS011;51002;51.462;7.218;2022-07-10T14:12:56;2.40;;;0.22;;
41303;SDS011;51002;51.462;7.218;2022-07-10T14:15:25;2.92;;;0.28;;
41303;SDS011;51002;51.462;7.218;2022-07-10T14:17:53;1.52;;;0.35;;
41303;SDS011;51002;51.462;7.218;2022-07-10T14:20:20;2.13;;;0.40;;
41303;SDS011;51002;51.462;7.218;2022-07-10T14:22:45;1.95;;;0.35;;
41303;SDS011;51002;51.462;7.218;2022-07-10T14:25:16;1.92;;;0.25;;
41303;SDS011;51002;51.462;7.218;2022-07-10T14:27:42;2.67;;;0.20;;
41303;SDS011;51002;51.462;7.218;2022-07-10T14:30:11;3.22;;;0.30;;
41303;SDS011;51002;51.462;7.218;2022-07-10T14:32:37;2.85;;;0.32;;
41303;SDS011;51002;51.462;7.218;2022-07-10T14:35:03;2.13;;;0.50;;
41303;SDS011;51002;51.462;7.218;2022-07-10T14:37:29;1.55;;;0.22;;
41303;SDS011;51002;51.462;7.218;2022-07-10T14:39:56;3.93;;;0.43;;
41303;SDS011;51002;51.462;7.218;2022-07-10T14:42:22;1.63;;;0.28;;
41303;SDS011;51002;51.462;7.218;2022-07-10T14:44:50;3.27;;;0.20;;
41303;SDS011;51002;51.462;7.218;2022-07-10T14:47:18;2.67;;;0.37;;
41303;SDS011;51002;51.462;7.218;2022-07-10T14:49:45;2.17;;;0.20;;
41303;SDS011;51002;51.462;7.218;2022-07-10T14:52:11;2.38;;;0.40;;
41303;SDS011;51002;51.462;7.218;2022-07-10T14:54:40;2.70;;;0.80;;
41303;SDS011;51002;51.462;7.218;2022-07-10T14:57:08;1.75;;;0.60;;
41303;SDS011;51002;51.462;7.218;2022-07-10T14:59:41;2.20;;;0.60;;
41303;SDS011;51002;51.462;7.218;2022-07-10T15:04:37;3.85;;;1.30;;
41303;SDS011;51002;51.462;7.218;2022-07-10T15:07:03;6.65;;;1.15;;
41303;SDS011;51002;51.462;7.218;2022-07-10T15:09:32;4.05;;;0.90;;
41303;SDS011;51002;51.462;7.218;2022-07-10T15:11:57;3.33;;;1.20;;
41303;SDS011;51002;51.462;7.218;2022-07-10T15:14:23;2.35;;;1.17;;
41303;SDS011;51002;51.462;7.218;2022-07-10T15:16:55;3.70;;;1.10;;
41303;SDS011;51002;51.462;7.218;2022-07-10T15:19:25;3.05;;;0.90;;
41303;SDS011;51002;51.462;7.218;2022-07-10T15:21:51;2.65;;;0.93;;
41303;SDS011;51002;51.462;7.218;2022-07-10T15:24:19;4.45;;;1.10;;
41303;SDS011;51002;51.462;7.218;2022-07-10T15:26:45;6.40;;;1.10;;
41303;SDS011;51002;51.462;7.218;2022-07-10T15:29:11;1.85;;;0.90;;
41303;SDS011;51002;51.462;7.218;2022-07-10T15:31:39;2.63;;;1.17;;
41303;SDS011;51002;51.462;7.218;2022-07-10T15:34:06;1.98;;;0.85;;
41303;SDS011;51002;51.462;7.218;2022-07-10T15:36:40;2.40;;;0.98;;
41303;SDS011;51002;51.462;7.218;2022-07-10T15:39:10;2.85;;;1.02;;
41303;SDS011;51002;51.462;7.218;2022-07-10T15:41:40;1.73;;;0.98;;
41303;SDS011;51002;51.462;7.218;2022-07-10T15:44:11;3.10;;;1.10;;
41303;SDS011;51002;51.462;7.218;2022-07-10T15:46:41;3.45;;;1.30;;
41303;SDS011;51002;51.462;7.218;2022-07-10T15:49:07;2.22;;;1.02;;
41303;SDS011;51002;51.462;7.218;2022-07-10T15:51:36;2.33;;;1.10;;
41303;SDS011;51002;51.462;7.218;2022-07-10T15:54:02;4.35;;;1.30;;
41303;SDS011;51002;51.462;7.218;2022-07-10T15:56:37;2.45;;;1.10;;
41303;SDS011;51002;51.462;7.218;2022-07-10T15:59:20;3.67;;;1.63;;
41303;SDS011;51002;51.462;7.218;2022-07-10T16:01:52;5.28;;;1.42;;
41303;SDS011;51002;51.462;7.218;2022-07-10T16:04:18;4.47;;;1.35;;
41303;SDS011;51002;51.462;7.218;2022-07-10T16:06:46;4.20;;;1.50;;
41303;SDS011;51002;51.462;7.218;2022-07-10T16:09:17;3.58;;;1.58;;
41303;SDS011;51002;51.462;7.218;2022-07-10T16:11:47;3.78;;;1.00;;
41303;SDS011;51002;51.462;7.218;2022-07-10T16:14:15;4.80;;;1.42;;
41303;SDS011;51002;51.462;7.218;2022-07-10T16:16:44;3.75;;;1.30;;
41303;SDS011;51002;51.462;7.218;2022-07-10T16:19:15;1.40;;;0.50;;
41303;SDS011;51002;51.462;7.218;2022-07-10T16:21:41;3.88;;;0.85;;
41303;SDS011;51002;51.462;7.218;2022-07-10T16:24:06;3.60;;;0.70;;
41303;SDS011;51002;51.462;7.218;2022-07-10T16:26:34;2.97;;;0.60;;
41303;SDS011;51002;51.462;7.218;2022-07-10T16:29:00;2.38;;;0.63;;
41303;SDS011;51002;51.462;7.218;2022-07-10T16:31:26;2.30;;;0.35;;
41303;SDS011;51002;51.462;7.218;2022-07-10T16:33:57;2.33;;;0.30;;
41303;SDS011;51002;51.462;7.218;2022-07-10T16:36:26;2.55;;;0.30;;
41303;SDS011;51002;51.462;7.218;2022-07-10T16:38:52;2.45;;;0.45;;
41303;SDS011;51002;51.462;7.218;2022-07-10T16:41:18;2.28;;;0.10;;
41303;SDS011;51002;51.462;7.218;2022-07-10T16:43:44;2.00;;;0.30;;
41303;SDS011;51002;51.462;7.218;2022-07-10T16:46:09;1.88;;;0.32;;
41303;SDS011;51002;51.462;7.218;2022-07-10T16:48:37;1.65;;;0.30;;
41303;SDS011;51002;51.462;7.218;2022-07-10T16:51:03;1.75;;;0.32;;
41303;SDS011;51002;51.462;7.218;2022-07-10T16:53:29;2.55;;;0.30;;
41303;SDS011;51002;51.462;7.218;2022-07-10T16:55:58;2.70;;;0.30;;
41303;SDS011;51002;51.462;7.218;2022-07-10T16:58:26;1.88;;;0.20;;
41303;SDS011;51002;51.462;7.218;2022-07-10T17:00:54;1.98;;;0.30;;
41303;SDS011;51002;51.462;7.218;2022-07-10T17:03:20;2.35;;;0.20;;
41303;SDS011;51002;51.462;7.218;2022-07-10T17:06:06;2.65;;;0.30;;
41303;SDS011;51002;51.462;7.218;2022-07-10T17:08:32;1.85;;;0.40;;
41303;SDS011;51002;51.462;7.218;2022-07-10T17:10:57;1.90;;;0.28;;
41303;SDS011;51002;51.462;7.218;2022-07-10T17:13:23;2.03;;;0.30;;
41303;SDS011;51002;51.462;7.218;2022-07-10T17:15:50;2.53;;;0.38;;
41303;SDS011;51002;51.462;7.218;2022-07-10T17:18:16;2.60;;;0.32;;
41303;SDS011;51002;51.462;7.218;2022-07-10T17:20:41;2.92;;;0.30;;
41303;SDS011;51002;51.462;7.218;2022-07-10T17:23:07;3.00;;;0.40;;
41303;SDS011;51002;51.462;7.218;2022-07-10T17:25:34;1.85;;;0.30;;
41303;SDS011;51002;51.462;7.218;2022-07-10T17:28:00;1.60;;;0.20;;
41303;SDS011;51002;51.462;7.218;2022-07-10T17:30:27;2.75;;;0.28;;
41303;SDS011;51002;51.462;7.218;2022-07-10T17:32:53;2.45;;;0.25;;
41303;SDS011;51002;51.462;7.218;2022-07-10T17:35:19;3.28;;;0.40;;
41303;SDS011;51002;51.462;7.218;2022-07-10T17:37:45;2.08;;;0.30;;
41303;SDS011;51002;51.462;7.218;2022-07-10T17:40:10;2.35;;;0.47;;
41303;SDS011;51002;51.462;7.218;2022-07-10T17:42:37;2.45;;;0.30;;
41303;SDS011;51002;51.462;7.218;2022-07-10T17:45:05;2.33;;;0.38;;
41303;SDS011;51002;51.462;7.218;2022-07-10T17:47:32;1.98;;;0.40;;
41303;SDS011;51002;51.462;7.218;2022-07-10T17:50:09;3.10;;;0.32;;
41303;SDS011;51002;51.462;7.218;2022-07-10T17:52:37;3.85;;;0.32;;
41303;SDS011;51002;51.462;7.218;2022-07-10T17:55:03;2.30;;;0.20;;
41303;SDS011;51002;51.462;7.218;2022-07-10T17:57:31;3.22;;;0.35;;
41303;SDS011;51002;51.462;7.218;2022-07-10T17:59:57;1.95;;;0.30;;
41303;SDS011;51002;51.462;7.218;2022-07-10T18:02:23;1.92;;;0.40;;
41303;SDS011;51002;51.462;7.218;2022-07-10T18:04:48;1.80;;;0.20;;
41303;SDS011;51002;51.462;7.218;2022-07-10T18:07:14;1.85;;;0.32;;
41303;SDS011;51002;51.462;7.218;2022-07-10T18:09:40;3.50;;;0.40;;
41303;SDS011;51002;51.462;7.218;2022-07-10T18:12:06;3.03;;;0.50;;
41303;SDS011;51002;51.462;7.218;2022-07-10T18:14:32;1.85;;;0.30;;
41303;SDS011;51002;51.462;7.218;2022-07-10T21:46:33;2.67;;;1.00;;
41303;SDS011;51002;51.462;7.218;2022-07-10T21:48:59;2.35;;;1.00;;
41303;SDS011;51002;51.462;7.218;2022-07-10T21:51:25;2.80;;;0.93;;
41303;SDS011;51002;51.462;7.218;2022-07-10T21:53:51;2.67;;;1.02;;
41303;SDS011;51002;51.462;7.218;2022-07-10T21:56:16;3.35;;;1.10;;
41303;SDS011;51002;51.462;7.218;2022-07-10T21:58:42;3.65;;;1.02;;
41303;SDS011;51002;51.462;7.218;2022-07-10T22:01:07;2.30;;;0.80;;
41303;SDS011;51002;51.462;7.218;2022-07-10T22:03:33;1.85;;;0.85;;
41303;SDS011;51002;51.462;7.218;2022-07-10T22:05:59;2.38;;;0.90;;
41303;SDS011;51002;51.462;7.218;2022-07-10T22:08:26;2.55;;;0.88;;
41303;SDS011;51002;51.462;7.218;2022-07-10T22:10:52;2.85;;;0.85;;
41303;SDS011;51002;51.462;7.218;2022-07-10T22:16:09;3.40;;;1.10;;
41303;SDS011;51002;51.462;7.218;2022-07-10T22:18:37;5.00;;;1.20;;
41303;SDS011;51002;51.462;7.218;2022-07-10T22:21:02;3.25;;;1.25;;
41303;SDS011;51002;51.462;7.218;2022-07-10T22:23:28;2.40;;;1.13;;
41303;SDS011;51002;51.462;7.218;2022-07-10T22:25:54;2.80;;;1.30;;
41303;SDS011;51002;51.462;7.218;2022-07-10T22:28:20;3.80;;;1.20;;
41303;SDS011;51002;51.462;7.218;2022-07-10T22:30:54;3.10;;;1.00;;
41303;SDS011;51002;51.462;7.218;2022-07-10T22:33:38;4.28;;;1.23;;
41303;SDS011;51002;51.462;7.218;2022-07-10T22:36:04;3.08;;;1.35;;
41303;SDS011;51002;51.462;7.218;2022-07-10T22:38:30;4.82;;;1.38;;
41303;SDS011;51002;51.462;7.218;2022-07-10T22:40:56;3.28;;;1.20;;
41303;SDS011;51002;51.462;7.218;2022-07-10T22:43:21;2.85;;;1.17;;
41303;SDS011;51002;51.462;7.218;2022-07-10T22:45:47;2.72;;;0.93;;
41303;SDS011;51002;51.462;7.218;2022-07-10T22:48:18;3.38;;;1.38;;
41303;SDS011;51002;51.462;7.218;2022-07-10T22:50:43;5.38;;;1.30;;
41303;SDS011;51002;51.462;7.218;2022-07-10T22:53:09;2.58;;;0.90;;
41303;SDS011;51002;51.462;7.218;2022-07-10T22:55:35;3.47;;;1.27;;
41303;SDS011;51002;51.462;7.218;2022-07-10T22:58:03;3.80;;;1.10;;
41303;SDS011;51002;51.462;7.218;2022-07-10T23:00:29;3.28;;;1.00;;
41303;SDS011;51002;51.462;7.218;2022-07-10T23:02:55;4.85;;;0.85;;
41303;SDS011;51002;51.462;7.218;2022-07-10T23:05:20;2.47;;;1.17;;
41303;SDS011;51002;51.462;7.218;2022-07-10T23:07:47;5.68;;;1.55;;
41303;SDS011;51002;51.462;7.218;2022-07-10T23:10:13;5.28;;;1.23;;
41303;SDS011;51002;51.462;7.218;2022-07-10T23:12:39;3.08;;;1.10;;
41303;SDS011;51002;51.462;7.218;2022-07-10T23:15:05;4.05;;;1.10;;
41303;SDS011;51002;51.462;7.218;2022-07-10T23:17:31;2.50;;;1.23;;
41303;SDS011;51002;51.462;7.218;2022-07-10T23:19:57;4.03;;;1.20;;
41303;SDS011;51002;51.462;7.218;2022-07-10T23:22:28;3.95;;;1.20;;
41303;SDS011;51002;51.462;7.218;2022-07-10T23:24:54;5.05;;;1.38;;
41303;SDS011;51002;51.462;7.218;2022-07-10T23:27:21;4.70;;;1.33;;
41303;SDS011;51002;51.462;7.218;2022-07-10T23:29:47;3.13;;;1.02;;
41303;SDS011;51002;51.462;7.218;2022-07-10T23:32:13;3.15;;;1.10;;
41303;SDS011;51002;51.462;7.218;2022-07-10T23:34:39;6.03;;;1.30;;
41303;SDS011;51002;51.462;7.218;2022-07-10T23:37:05;3.97;;;1.38;;
41303;SDS011;51002;51.462;7.218;2022-07-10T23:39:31;4.03;;;1.20;;
41303;SDS011;51002;51.462;7.218;2022-07-10T23:41:57;3.65;;;1.20;;
41303;SDS011;51002;51.462;7.218;2022-07-10T23:44:23;4.65;;;1.30;;
41303;SDS011;51002;51.462;7.218;2022-07-10T23:46:49;3.08;;;1.23;;
41303;SDS011;51002;51.462;7.218;2022-07-10T23:49:14;4.88;;;1.55;;
41303;SDS011;51002;51.462;7.218;2022-07-10T23:52:03;5.07;;;1.33;;
41303;SDS011;51002;51.462;7.218;2022-07-10T23:54:29;3.47;;;1.30;;
41303;SDS011;51002;51.462;7.218;2022-07-10T23:56:55;4.05;;;1.23;;
41303;SDS011;51002;51.462;7.218;2022-07-10T23:59:20;3.65;;;1.00;;
